createdAt,value
2018-03-24T00:01:27.443Z,78.40
2018-03-24T00:03:55.604Z,78.70
2018-03-24T00:06:23.809Z,78.70
2018-03-24T00:08:51.983Z,78.90
2018-03-24T00:11:20.145Z,79.20
2018-03-24T00:13:48.316Z,79.10
2018-03-24T00:16:16.496Z,78.80
2018-03-24T00:18:44.650Z,78.70
2018-03-24T00:21:12.811Z,78.40
2018-03-24T00:23:40.986Z,78.50
2018-03-24T00:26:09.149Z,78.50
2018-03-24T00:28:38.092Z,78.50
2018-03-24T00:31:06.290Z,78.40
2018-03-24T00:33:34.464Z,78.50
2018-03-24T00:36:02.677Z,78.80
2018-03-24T00:38:30.851Z,79.00
2018-03-24T00:40:59.038Z,79.00
2018-03-24T00:43:27.208Z,79.40
2018-03-24T00:45:55.375Z,79.20
2018-03-24T00:48:24.304Z,78.80
2018-03-24T00:50:52.593Z,78.80
2018-03-24T00:53:20.789Z,78.90
2018-03-24T00:55:48.951Z,79.00
2018-03-24T00:58:17.142Z,79.10
2018-03-24T01:00:45.342Z,79.50
2018-03-24T01:03:13.506Z,79.50
2018-03-24T01:05:42.444Z,79.00
2018-03-24T01:08:10.647Z,79.00
2018-03-24T01:10:38.822Z,79.00
2018-03-24T01:13:07.011Z,79.00
2018-03-24T01:15:35.171Z,79.10
2018-03-24T01:18:03.336Z,79.20
2018-03-24T01:20:31.514Z,79.60
2018-03-24T01:22:59.715Z,79.90
2018-03-24T01:25:28.641Z,79.90
2018-03-24T01:27:56.834Z,79.80
2018-03-24T01:30:25.012Z,80.00
2018-03-24T01:32:53.178Z,80.00
2018-03-24T01:35:21.361Z,80.00
2018-03-24T01:37:49.526Z,79.80
2018-03-24T01:40:17.703Z,79.60
2018-03-24T01:42:45.873Z,79.40
2018-03-24T01:45:14.058Z,79.40
2018-03-24T01:47:42.239Z,79.40
2018-03-24T01:50:10.396Z,79.30
2018-03-24T01:52:38.549Z,79.50
2018-03-24T01:55:06.702Z,79.40
2018-03-24T01:57:35.645Z,79.30
2018-03-24T02:00:03.822Z,79.20
2018-03-24T02:02:31.974Z,79.20
2018-03-24T02:05:00.144Z,79.40
2018-03-24T02:07:28.301Z,79.60
2018-03-24T02:09:57.230Z,79.30
2018-03-24T02:12:25.382Z,79.30
2018-03-24T02:14:53.537Z,79.40
2018-03-24T02:17:22.468Z,79.60
2018-03-24T02:19:50.757Z,79.40
2018-03-24T02:22:18.942Z,79.60
2018-03-24T02:24:54.606Z,79.60
2018-03-24T02:27:22.761Z,78.90
2018-03-24T02:29:50.968Z,78.80
2018-03-24T02:32:19.132Z,79.10
2018-03-24T02:34:47.294Z,79.30
2018-03-24T02:37:15.464Z,79.20
2018-03-24T02:39:43.672Z,79.10
2018-03-24T02:42:12.596Z,79.50
2018-03-24T02:44:40.760Z,79.50
2018-03-24T02:47:08.967Z,79.60
2018-03-24T02:49:37.116Z,79.60
2018-03-24T02:52:05.285Z,79.40
2018-03-24T02:54:33.443Z,79.40
2018-03-24T02:57:02.367Z,79.70
2018-03-24T02:59:30.548Z,79.60
2018-03-24T03:01:58.736Z,79.70
2018-03-24T03:04:26.901Z,79.90
2018-03-24T03:06:55.066Z,79.80
2018-03-24T03:09:23.247Z,79.80
2018-03-24T03:11:51.403Z,79.70
2018-03-24T03:14:19.570Z,79.30
2018-03-24T03:16:47.754Z,79.30
2018-03-24T03:19:15.925Z,79.40
2018-03-24T03:21:52.834Z,79.40
2018-03-24T03:24:21.755Z,79.10
2018-03-24T03:26:49.918Z,78.90
2018-03-24T03:29:18.090Z,79.20
2018-03-24T03:31:49.048Z,79.30
2018-03-24T03:34:17.226Z,79.40
2018-03-24T03:36:45.418Z,79.70
2018-03-24T03:39:14.341Z,79.80
2018-03-24T03:41:42.494Z,79.70
2018-03-24T03:44:10.655Z,79.70
2018-03-24T03:46:39.570Z,79.60
2018-03-24T03:49:07.725Z,79.40
2018-03-24T03:51:36.648Z,79.20
2018-03-24T03:54:04.838Z,79.20
2018-03-24T03:56:32.999Z,78.90
2018-03-24T03:59:01.163Z,78.90
2018-03-24T04:01:29.334Z,79.10
2018-03-24T04:03:57.491Z,79.00
2018-03-24T04:06:26.455Z,79.10
2018-03-24T04:08:54.614Z,79.10
2018-03-24T04:11:22.783Z,79.40
2018-03-24T04:13:50.937Z,79.30
2018-03-24T04:16:19.098Z,79.50
2018-03-24T04:18:47.257Z,79.40
2018-03-24T04:21:15.417Z,79.40
2018-03-24T04:23:44.347Z,79.10
2018-03-24T04:26:12.549Z,79.10
2018-03-24T04:28:40.736Z,79.30
2018-03-24T04:31:08.913Z,79.60
2018-03-24T04:33:37.098Z,80.00
2018-03-24T04:36:05.259Z,79.20
2018-03-24T04:38:33.410Z,79.20
2018-03-24T04:41:01.572Z,79.30
2018-03-24T04:43:29.730Z,79.30
2018-03-24T04:45:57.901Z,79.40
2018-03-24T04:48:26.064Z,79.60
2018-03-24T04:50:54.225Z,79.50
2018-03-24T04:53:23.161Z,79.70
2018-03-24T04:55:51.319Z,79.70
2018-03-24T04:58:19.485Z,79.80
2018-03-24T05:00:47.684Z,79.80
2018-03-24T05:03:15.846Z,80.10
2018-03-24T05:05:44.016Z,80.20
2018-03-24T05:08:12.191Z,79.70
2018-03-24T05:10:40.356Z,79.50
2018-03-24T05:13:08.514Z,79.80
2018-03-24T05:15:37.468Z,79.80
2018-03-24T05:18:05.634Z,79.70
2018-03-24T05:20:33.792Z,80.10
2018-03-24T05:23:01.972Z,79.80
2018-03-24T05:25:30.154Z,79.30
2018-03-24T05:27:58.329Z,79.60
2018-03-24T05:30:26.503Z,79.50
2018-03-24T05:32:54.671Z,79.50
2018-03-24T05:35:22.824Z,79.50
2018-03-24T05:37:50.992Z,79.40
2018-03-24T05:40:19.160Z,79.40
2018-03-24T05:42:48.106Z,82.90
2018-03-24T05:45:16.270Z,82.90
2018-03-24T05:47:44.437Z,82.80
2018-03-24T05:50:12.614Z,80.70
2018-03-24T05:52:40.772Z,79.90
2018-03-24T05:55:08.943Z,79.50
2018-03-24T05:57:37.112Z,79.60
2018-03-24T06:00:05.301Z,79.90
2018-03-24T06:02:33.481Z,79.70
2018-03-24T06:05:01.635Z,79.30
2018-03-24T06:07:29.798Z,79.40
2018-03-24T06:09:58.731Z,79.60
2018-03-24T06:12:26.902Z,79.50
2018-03-24T06:14:55.102Z,79.40
2018-03-24T06:17:23.277Z,79.20
2018-03-24T06:19:51.430Z,79.30
2018-03-24T06:22:19.592Z,79.80
2018-03-24T06:24:47.744Z,79.80
2018-03-24T06:27:15.914Z,79.60
2018-03-24T06:29:44.843Z,79.80
2018-03-24T06:32:13.055Z,79.80
2018-03-24T06:34:41.242Z,79.70
2018-03-24T06:37:17.727Z,78.80
2018-03-24T06:39:45.933Z,78.70
2018-03-24T06:42:14.082Z,78.40
2018-03-24T06:44:42.405Z,78.60
2018-03-24T06:47:10.562Z,78.50
2018-03-24T06:49:38.714Z,78.20
2018-03-24T06:52:06.881Z,78.30
2018-03-24T06:54:35.074Z,77.40
2018-03-24T06:57:03.232Z,77.20
2018-03-24T06:59:31.398Z,77.30
2018-03-24T07:01:59.554Z,77.40
2018-03-24T07:04:28.496Z,77.60
2018-03-24T07:06:56.666Z,77.60
2018-03-24T07:09:24.822Z,78.10
2018-03-24T07:11:52.987Z,77.90
2018-03-24T07:14:21.158Z,77.60
2018-03-24T07:16:50.118Z,77.50
2018-03-24T07:19:18.268Z,77.30
2018-03-24T07:21:46.431Z,77.50
2018-03-24T07:24:14.610Z,77.50
2018-03-24T07:26:42.769Z,77.50
2018-03-24T07:29:10.939Z,77.20
2018-03-24T07:31:39.142Z,77.20
2018-03-24T07:34:07.304Z,76.80
2018-03-24T07:36:35.476Z,76.40
2018-03-24T07:39:03.670Z,77.00
2018-03-24T07:41:31.833Z,76.70
2018-03-24T07:44:00.010Z,76.30
2018-03-24T07:46:28.206Z,76.20
2018-03-24T07:48:56.387Z,75.80
2018-03-24T07:51:24.583Z,75.30
2018-03-24T07:53:53.524Z,74.80
2018-03-24T07:56:21.692Z,74.70
2018-03-24T07:58:49.882Z,74.40
2018-03-24T08:01:18.073Z,74.80
2018-03-24T08:03:46.243Z,73.80
2018-03-24T08:06:14.419Z,73.50
2018-03-24T08:08:42.588Z,73.50
2018-03-24T08:11:10.754Z,73.50
2018-03-24T08:13:38.914Z,72.60
2018-03-24T08:16:07.071Z,72.10
2018-03-24T08:18:35.231Z,71.40
2018-03-24T08:21:03.392Z,71.30
2018-03-24T08:23:32.323Z,70.80
2018-03-24T08:26:00.558Z,70.60
2018-03-24T08:28:28.727Z,69.30
2018-03-24T08:30:56.908Z,67.80
2018-03-24T08:33:25.851Z,66.20
2018-03-24T08:35:54.007Z,66.20
2018-03-24T08:38:22.220Z,65.90
2018-03-24T08:40:50.343Z,65.40
2018-03-24T08:43:18.520Z,63.90
2018-03-24T08:45:46.700Z,63.30
2018-03-24T08:48:14.871Z,63.30
2018-03-24T08:50:43.054Z,63.50
2018-03-24T08:53:11.230Z,62.40
2018-03-24T08:55:39.417Z,59.40
2018-03-24T08:58:07.611Z,59.00
2018-03-24T09:00:35.774Z,58.90
2018-03-24T09:03:03.926Z,57.60
2018-03-24T09:05:32.093Z,57.80
2018-03-24T09:08:00.257Z,57.70
2018-03-24T09:10:29.199Z,55.90
2018-03-24T09:12:57.387Z,55.90
2018-03-24T09:15:25.574Z,55.70
2018-03-24T09:17:53.750Z,56.50
2018-03-24T09:20:21.927Z,56.10
2018-03-24T09:22:50.097Z,54.90
2018-03-24T09:25:18.266Z,54.20
2018-03-24T09:27:46.446Z,54.10
2018-03-24T09:30:14.649Z,53.70
2018-03-24T09:32:43.618Z,51.50
2018-03-24T09:35:11.798Z,51.40
2018-03-24T09:37:40.738Z,50.90
2018-03-24T09:40:08.898Z,51.00
2018-03-24T09:42:37.087Z,50.40
2018-03-24T09:45:05.278Z,49.80
2018-03-24T09:47:33.461Z,48.70
2018-03-24T09:50:01.640Z,48.20
2018-03-24T09:52:29.814Z,47.70
2018-03-24T09:54:57.980Z,47.20
2018-03-24T09:57:26.163Z,46.50
2018-03-24T09:59:54.342Z,46.60
2018-03-24T10:02:22.512Z,46.20
2018-03-24T10:04:50.702Z,46.20
2018-03-24T10:07:18.870Z,45.70
2018-03-24T10:09:47.074Z,45.70
2018-03-24T10:12:16.010Z,44.70
2018-03-24T10:14:44.179Z,44.70
2018-03-24T10:17:12.358Z,43.90
2018-03-24T10:19:40.543Z,43.10
2018-03-24T10:25:41.202Z,40.70
2018-03-24T10:28:09.370Z,40.60
2018-03-24T10:30:37.577Z,40.40
2018-03-24T10:33:05.747Z,40.20
2018-03-24T10:35:33.929Z,40.50
2018-03-24T10:38:02.878Z,41.10
2018-03-24T10:40:31.053Z,41.10
2018-03-24T10:43:04.683Z,41.80
2018-03-24T10:45:32.874Z,41.60
2018-03-24T10:48:01.057Z,42.30
2018-03-24T10:50:30.016Z,42.00
2018-03-24T10:52:58.193Z,41.90
2018-03-24T10:55:26.386Z,42.80
2018-03-24T10:57:54.641Z,42.60
2018-03-24T11:00:28.390Z,42.20
2018-03-24T11:02:57.331Z,40.80
2018-03-24T11:05:25.509Z,40.80
2018-03-24T11:07:53.687Z,40.70
2018-03-24T11:10:21.862Z,40.50
2018-03-24T11:12:50.034Z,40.50
2018-03-24T11:15:18.218Z,41.10
2018-03-24T11:17:46.384Z,40.60
2018-03-24T11:20:14.561Z,39.70
2018-03-24T11:22:42.746Z,36.50
2018-03-24T11:25:10.919Z,35.80
2018-03-24T11:27:40.596Z,36.40
2018-03-24T11:30:08.779Z,36.30
2018-03-24T11:32:36.946Z,36.90
2018-03-24T11:35:05.115Z,37.00
2018-03-24T11:37:33.291Z,37.30
2018-03-24T11:40:01.483Z,38.00
2018-03-24T11:42:29.654Z,39.00
2018-03-24T11:44:57.884Z,38.50
2018-03-24T11:47:26.015Z,39.20
2018-03-24T11:49:54.199Z,39.70
2018-03-24T11:52:22.378Z,39.70
2018-03-24T11:54:50.546Z,39.40
2018-03-24T11:57:20.225Z,40.20
2018-03-24T11:59:48.397Z,39.50
2018-03-24T12:02:16.567Z,39.30
2018-03-24T12:04:44.747Z,39.50
2018-03-24T12:07:12.926Z,39.80
2018-03-24T12:09:41.098Z,40.20
2018-03-24T12:12:09.375Z,40.70
2018-03-24T12:14:37.543Z,41.10
2018-03-24T12:17:05.731Z,41.00
2018-03-24T12:19:33.906Z,40.80
2018-03-24T12:22:02.074Z,40.90
2018-03-24T12:24:30.256Z,41.40
2018-03-24T12:26:58.436Z,41.40
2018-03-24T12:29:26.606Z,41.60
2018-03-24T12:31:54.790Z,42.10
2018-03-24T12:34:22.970Z,42.50
2018-03-24T12:36:51.956Z,43.40
2018-03-24T12:39:20.134Z,43.30
2018-03-24T12:41:48.311Z,43.90
2018-03-24T12:44:16.492Z,44.20
2018-03-24T12:46:44.667Z,44.30
2018-03-24T12:49:12.847Z,44.40
2018-03-24T12:51:41.033Z,44.00
2018-03-24T12:54:09.998Z,44.50
2018-03-24T12:56:38.198Z,44.40
2018-03-24T12:59:06.367Z,44.50
2018-03-24T13:01:34.590Z,44.80
2018-03-24T13:04:02.773Z,44.60
2018-03-24T13:06:30.947Z,44.40
2018-03-24T13:08:59.128Z,44.30
2018-03-24T13:11:27.302Z,44.30
2018-03-24T13:13:55.541Z,44.40
2018-03-24T13:16:23.698Z,44.20
2018-03-24T13:18:51.871Z,44.20
2018-03-24T13:21:20.822Z,44.20
2018-03-24T13:23:49.010Z,44.10
2018-03-24T13:26:17.184Z,43.70
2018-03-24T13:28:45.367Z,43.20
2018-03-24T13:31:13.573Z,43.30
2018-03-24T13:33:42.515Z,42.70
2018-03-24T13:36:10.697Z,42.70
2018-03-24T13:38:38.874Z,42.50
2018-03-24T13:41:07.815Z,42.00
2018-03-24T13:43:36.758Z,41.30
2018-03-24T13:46:04.938Z,41.20
2018-03-24T13:48:33.122Z,40.80
2018-03-24T13:51:01.298Z,35.10
2018-03-24T13:53:30.268Z,32.80
2018-03-24T13:55:58.489Z,32.80
2018-03-24T13:58:27.454Z,33.90
2018-03-24T14:00:55.623Z,33.80
2018-03-24T14:03:23.826Z,35.00
2018-03-24T14:05:52.006Z,35.10
2018-03-24T14:08:21.022Z,34.90
2018-03-24T14:10:49.979Z,33.20
2018-03-24T14:13:18.184Z,33.10
2018-03-24T14:15:47.129Z,33.50
2018-03-24T14:18:15.310Z,32.90
2018-03-24T14:20:43.509Z,29.60
2018-03-24T14:23:12.457Z,24.40
2018-03-24T14:25:40.630Z,24.30
2018-03-24T14:28:08.813Z,23.00
2018-03-24T14:30:36.990Z,23.10
2018-03-24T14:33:05.163Z,23.10
2018-03-24T14:35:33.357Z,23.90
2018-03-24T14:38:01.590Z,25.30
2018-03-24T14:40:30.539Z,29.10
2018-03-24T14:42:58.687Z,29.10
2018-03-24T14:45:27.627Z,31.80
2018-03-24T14:47:56.603Z,32.90
2018-03-24T14:50:24.771Z,32.80
2018-03-24T14:52:52.939Z,34.20
2018-03-24T14:55:22.105Z,35.80
2018-03-24T14:57:50.294Z,36.70
2018-03-24T15:00:18.486Z,37.50
2018-03-24T15:02:46.674Z,39.30
2018-03-24T15:05:15.633Z,39.60
2018-03-24T15:07:44.590Z,39.70
2018-03-24T15:10:12.825Z,39.60
2018-03-24T15:12:41.025Z,40.40
2018-03-24T15:15:09.967Z,40.80
2018-03-24T15:17:38.154Z,40.70
2018-03-24T15:20:06.351Z,41.00
2018-03-24T15:22:34.528Z,41.20
2018-03-24T15:25:02.703Z,41.80
2018-03-24T15:27:31.645Z,41.00
2018-03-24T15:30:17.594Z,40.70
2018-03-24T15:32:53.975Z,41.70
2018-03-24T15:38:22.602Z,40.70
2018-03-24T15:40:50.802Z,41.20
2018-03-24T15:43:19.010Z,41.10
2018-03-24T15:45:48.027Z,41.70
2018-03-24T15:48:16.231Z,42.30
2018-03-24T15:50:44.402Z,41.90
2018-03-24T15:53:12.574Z,42.90
2018-03-24T15:55:40.762Z,43.70
2018-03-24T15:58:08.924Z,43.70
2018-03-24T16:00:37.087Z,43.90
2018-03-24T16:03:05.287Z,44.80
2018-03-24T16:05:33.450Z,45.30
2018-03-24T16:08:01.630Z,45.50
2018-03-24T16:10:29.814Z,45.90
2018-03-24T16:12:57.979Z,46.00
2018-03-24T16:15:26.148Z,46.50
2018-03-24T16:17:54.323Z,46.20
2018-03-24T16:20:22.503Z,46.90
2018-03-24T16:22:50.672Z,47.40
2018-03-24T16:25:18.842Z,47.70
2018-03-24T16:27:47.013Z,48.40
2018-03-24T16:30:15.179Z,48.80
2018-03-24T16:32:43.351Z,48.80
2018-03-24T16:35:11.542Z,49.20
2018-03-24T16:37:39.703Z,49.60
2018-03-24T16:40:07.863Z,50.00
2018-03-24T16:42:36.797Z,51.00
2018-03-24T16:45:04.994Z,50.90
2018-03-24T16:47:33.167Z,51.40
2018-03-24T16:50:01.357Z,52.40
2018-03-24T16:52:29.519Z,53.00
2018-03-24T16:54:57.762Z,53.60
2018-03-24T16:57:25.936Z,54.00
2018-03-24T16:59:54.107Z,54.20
2018-03-24T17:02:22.304Z,54.50
2018-03-24T17:04:51.262Z,56.70
2018-03-24T17:07:19.439Z,56.70
2018-03-24T17:09:47.642Z,55.10
2018-03-24T17:12:15.814Z,55.90
2018-03-24T17:14:43.980Z,55.10
2018-03-24T17:17:12.187Z,54.80
2018-03-24T17:19:40.376Z,55.00
2018-03-24T17:22:09.315Z,55.50
2018-03-24T17:24:37.491Z,55.40
2018-03-24T17:27:05.674Z,55.70
2018-03-24T17:29:33.921Z,55.70
2018-03-24T17:32:02.087Z,55.90
2018-03-24T17:34:31.021Z,56.60
2018-03-24T17:36:59.192Z,56.60
2018-03-24T17:39:27.533Z,56.70
2018-03-24T17:41:56.462Z,57.50
2018-03-24T17:44:24.675Z,57.50
2018-03-24T17:46:53.629Z,57.20
2018-03-24T17:49:21.810Z,57.10
2018-03-24T17:51:49.978Z,56.80
2018-03-24T17:54:18.200Z,56.80
2018-03-24T17:56:47.147Z,55.00
2018-03-24T17:59:15.312Z,54.90
2018-03-24T18:01:43.498Z,53.80
2018-03-24T18:04:11.699Z,53.90
2018-03-24T18:06:39.870Z,53.10
2018-03-24T18:09:08.059Z,53.30
2018-03-24T18:11:36.249Z,54.20
2018-03-24T18:14:05.189Z,55.00
2018-03-24T18:16:33.360Z,55.00
2018-03-24T18:19:01.531Z,55.30
2018-03-24T18:21:29.710Z,55.50
2018-03-24T18:23:57.882Z,55.60
2018-03-24T18:26:26.052Z,55.70
2018-03-24T18:28:54.376Z,55.70
2018-03-24T18:31:22.554Z,56.00
2018-03-24T18:33:51.495Z,56.10
2018-03-24T18:36:19.670Z,56.10
2018-03-24T18:38:47.892Z,56.40
2018-03-24T18:41:16.071Z,56.80
2018-03-24T18:43:45.026Z,58.00
2018-03-24T18:46:13.203Z,57.80
2018-03-24T18:48:41.378Z,58.30
2018-03-24T18:51:10.366Z,58.90
2018-03-24T18:53:38.540Z,58.90
2018-03-24T18:56:06.719Z,59.20
2018-03-24T18:58:34.922Z,59.50
2018-03-24T19:01:03.097Z,59.80
2018-03-24T19:03:31.275Z,59.70
2018-03-24T19:05:59.486Z,59.90
2018-03-24T19:08:27.685Z,60.20
2018-03-24T19:10:55.920Z,60.70
2018-03-24T19:13:24.863Z,60.30
2018-03-24T19:15:53.030Z,60.30
2018-03-24T19:18:21.194Z,60.20
2018-03-24T19:20:49.355Z,60.70
2018-03-24T19:23:17.533Z,61.20
2018-03-24T19:25:45.728Z,61.30
2018-03-24T19:28:13.911Z,61.80
2018-03-24T19:30:42.880Z,64.70
2018-03-24T19:33:11.046Z,64.80
2018-03-24T19:35:39.239Z,66.10
2018-03-24T19:38:07.420Z,66.80
2018-03-24T19:40:35.596Z,68.10
2018-03-24T19:43:03.766Z,69.20
2018-03-24T19:45:31.932Z,69.90
2018-03-24T19:48:00.117Z,70.80
2018-03-24T19:50:28.336Z,71.40
2018-03-24T19:52:56.499Z,71.60
2018-03-24T19:55:24.667Z,72.00
2018-03-24T19:57:53.646Z,73.00
2018-03-24T20:00:22.611Z,73.50
2018-03-24T20:02:50.792Z,73.50
2018-03-24T20:05:18.962Z,74.10
2018-03-24T20:07:47.152Z,75.00
2018-03-24T20:10:15.332Z,75.50
2018-03-24T20:12:43.506Z,76.60
2018-03-24T20:15:11.688Z,76.50
2018-03-24T20:17:40.638Z,76.90
2018-03-24T20:20:08.817Z,76.80
2018-03-24T20:22:37.811Z,77.00
2018-03-24T20:25:06.032Z,77.40
2018-03-24T20:27:35.038Z,76.90
2018-03-24T20:30:03.254Z,76.90
2018-03-24T20:32:31.447Z,76.70
2018-03-24T20:34:59.607Z,76.60
2018-03-24T20:37:27.799Z,76.30
2018-03-24T20:39:56.039Z,76.10
2018-03-24T20:42:24.276Z,76.50
2018-03-24T20:44:52.526Z,76.40
2018-03-24T20:47:20.675Z,76.30
2018-03-24T20:49:49.763Z,77.30
2018-03-24T20:52:18.015Z,76.80
2018-03-24T20:54:50.016Z,76.70
2018-03-24T20:57:18.578Z,76.50
2018-03-24T20:59:51.247Z,76.40
2018-03-24T21:02:19.431Z,76.30
2018-03-24T21:04:50.755Z,76.20
2018-03-24T21:07:20.400Z,76.40
2018-03-24T21:09:53.996Z,76.60
2018-03-24T21:12:22.393Z,76.40
2018-03-24T21:14:53.627Z,76.40
2018-03-24T21:17:22.234Z,76.50
2018-03-24T21:19:51.795Z,76.80
2018-03-24T21:22:19.994Z,77.00
2018-03-24T21:24:48.174Z,76.80
2018-03-24T21:27:16.382Z,76.20
2018-03-24T21:29:44.551Z,81.00
2018-03-24T21:32:12.740Z,77.50
2018-03-24T21:34:41.691Z,77.00
2018-03-24T21:37:09.871Z,77.00
2018-03-24T21:39:38.037Z,75.70
2018-03-24T21:42:06.214Z,75.40
2018-03-24T21:44:34.425Z,75.10
2018-03-24T21:47:02.611Z,75.00
2018-03-24T21:49:31.574Z,74.80
2018-03-24T21:51:59.764Z,74.70
2018-03-24T21:54:28.006Z,74.00
2018-03-24T21:56:56.278Z,73.90
2018-03-24T21:59:24.454Z,73.80
2018-03-24T22:01:52.651Z,73.50
2018-03-24T22:04:20.820Z,73.70
2018-03-24T22:06:49.006Z,73.40
2018-03-24T22:09:17.177Z,73.90
2018-03-24T22:11:45.375Z,74.20
2018-03-24T22:14:14.363Z,73.70
2018-03-24T22:16:42.537Z,73.60
2018-03-24T22:19:10.725Z,74.00
2018-03-24T22:21:39.672Z,74.00
2018-03-24T22:24:07.869Z,74.00
2018-03-24T22:26:36.063Z,74.40
2018-03-24T22:29:05.017Z,74.40
2018-03-24T22:31:33.197Z,74.30
2018-03-24T22:34:01.404Z,74.40
2018-03-24T22:36:29.587Z,74.60
2018-03-24T22:38:58.533Z,74.20
2018-03-24T22:41:26.705Z,74.20
2018-03-24T22:43:54.877Z,74.30
2018-03-24T22:46:23.085Z,74.50
2018-03-24T22:48:51.254Z,74.10
2018-03-24T22:51:19.460Z,74.20
2018-03-24T22:53:47.629Z,74.50
2018-03-24T22:56:16.582Z,75.00
2018-03-24T22:58:44.849Z,75.00
2018-03-24T23:01:13.039Z,75.00
2018-03-24T23:03:41.238Z,74.80
2018-03-24T23:06:10.192Z,75.00
2018-03-24T23:08:38.389Z,74.90
2018-03-24T23:11:06.576Z,75.10
2018-03-24T23:13:34.780Z,75.20
2018-03-24T23:16:02.965Z,75.20
2018-03-24T23:18:31.147Z,75.40
2018-03-24T23:20:59.360Z,75.90
2018-03-24T23:23:27.560Z,76.10
2018-03-24T23:25:56.498Z,76.70
2018-03-24T23:28:24.692Z,76.70
2018-03-24T23:30:52.867Z,77.20
2018-03-24T23:33:21.046Z,77.40
2018-03-24T23:35:49.256Z,77.60
2018-03-24T23:38:18.190Z,77.90
2018-03-24T23:40:46.390Z,77.80
2018-03-24T23:43:14.583Z,77.80
2018-03-24T23:45:42.761Z,78.00
2018-03-24T23:48:10.925Z,78.10
2018-03-24T23:50:39.235Z,78.40
2018-03-24T23:53:08.165Z,78.90
2018-03-24T23:55:36.372Z,78.80
2018-03-24T23:58:04.553Z,78.90
